createdAt,value
2023-06-29T00:02:05.849Z,7.22
2023-06-29T00:04:54.927Z,6.35
2023-06-29T00:07:43.339Z,7.03
2023-06-29T00:10:31.186Z,7.00
2023-06-29T00:13:19.123Z,6.70
2023-06-29T00:16:08.487Z,7.00
2023-06-29T00:18:56.521Z,7.88
2023-06-29T00:21:49.262Z,7.88
2023-06-29T00:24:43.699Z,8.13
2023-06-29T00:27:31.571Z,7.68
2023-06-29T00:30:19.477Z,8.52
2023-06-29T00:33:08.987Z,8.90
2023-06-29T00:35:56.909Z,8.93
2023-06-29T00:38:44.815Z,7.68
2023-06-29T00:41:32.753Z,8.30
2023-06-29T00:44:20.695Z,8.88
2023-06-29T00:47:09.399Z,8.82
2023-06-29T00:49:58.746Z,9.90
2023-06-29T00:52:46.743Z,9.57
2023-06-29T00:55:35.025Z,8.45
2023-06-29T00:58:22.841Z,8.70
2023-06-29T01:01:11.027Z,9.05
2023-06-29T01:03:59.241Z,9.77
2023-06-29T01:06:55.577Z,11.63
2023-06-29T01:09:45.716Z,9.98
2023-06-29T01:12:35.690Z,10.35
2023-06-29T01:15:24.207Z,9.02
2023-06-29T01:18:14.562Z,10.50
2023-06-29T01:21:04.740Z,9.52
2023-06-29T01:23:57.551Z,10.23
2023-06-29T01:26:48.929Z,9.70
2023-06-29T01:29:37.019Z,9.60
2023-06-29T01:32:27.439Z,9.23
2023-06-29T01:35:15.741Z,11.18
2023-06-29T01:38:09.009Z,9.70
2023-06-29T01:40:59.953Z,10.05
2023-06-29T01:43:49.740Z,10.00
2023-06-29T01:46:38.317Z,9.15
2023-06-29T01:49:26.325Z,9.00
2023-06-29T01:52:14.482Z,7.68
2023-06-29T01:55:02.293Z,8.75
2023-06-29T01:57:50.324Z,7.97
2023-06-29T02:00:39.616Z,8.25
2023-06-29T02:03:27.560Z,8.27
2023-06-29T02:06:15.668Z,8.52
2023-06-29T02:09:03.533Z,7.57
2023-06-29T02:11:51.395Z,7.30
2023-06-29T02:14:39.349Z,7.47
2023-06-29T02:17:28.770Z,7.10
2023-06-29T02:20:18.557Z,6.93
2023-06-29T02:23:06.665Z,7.40
2023-06-29T02:25:54.577Z,7.60
2023-06-29T02:28:42.569Z,6.50
2023-06-29T02:31:31.030Z,6.68
2023-06-29T02:34:20.447Z,7.15
2023-06-29T02:37:08.378Z,7.03
2023-06-29T02:39:56.416Z,6.40
2023-06-29T02:42:44.260Z,5.65
2023-06-29T02:45:32.092Z,6.00
2023-06-29T02:48:19.944Z,6.22
2023-06-29T02:51:09.261Z,6.90
2023-06-29T02:53:57.173Z,5.72
2023-06-29T02:56:44.952Z,6.63
2023-06-29T02:59:32.990Z,6.32
2023-06-29T03:02:20.840Z,6.50
2023-06-29T03:05:09.673Z,5.93
2023-06-29T03:07:58.810Z,6.07
2023-06-29T03:10:46.721Z,5.38
2023-06-29T03:13:34.599Z,5.32
2023-06-29T03:16:22.483Z,5.35
2023-06-29T03:19:10.502Z,6.03
2023-06-29T03:21:58.377Z,6.15
2023-06-29T03:24:47.812Z,6.80
2023-06-29T03:27:35.693Z,5.65
2023-06-29T03:30:23.762Z,6.60
2023-06-29T03:33:11.610Z,5.95
2023-06-29T03:35:59.654Z,6.00
2023-06-29T03:38:47.692Z,7.75
2023-06-29T03:41:36.869Z,6.03
2023-06-29T03:44:24.635Z,9.35
2023-06-29T03:47:12.626Z,7.05
2023-06-29T03:50:00.469Z,8.15
2023-06-29T03:52:48.337Z,7.00
2023-06-29T03:55:36.339Z,5.80
2023-06-29T03:58:25.527Z,5.82
2023-06-29T04:01:13.571Z,5.40
2023-06-29T04:04:01.369Z,5.75
2023-06-29T04:06:49.434Z,6.43
2023-06-29T04:09:37.281Z,6.30
2023-06-29T04:12:25.377Z,5.78
2023-06-29T04:15:14.598Z,5.88
2023-06-29T04:18:02.905Z,5.75
2023-06-29T04:20:50.829Z,5.80
2023-06-29T04:23:38.704Z,7.45
2023-06-29T04:26:29.126Z,6.38
2023-06-29T04:29:17.507Z,8.18
2023-06-29T04:32:07.098Z,5.90
2023-06-29T04:34:54.900Z,9.80
2023-06-29T04:37:45.517Z,7.05
2023-06-29T04:40:33.291Z,7.10
2023-06-29T04:43:21.794Z,6.10
2023-06-29T04:46:09.649Z,5.90
2023-06-29T04:49:06.392Z,5.25
2023-06-29T04:51:58.433Z,4.03
2023-06-29T04:54:48.295Z,5.07
2023-06-29T04:57:36.029Z,5.60
2023-06-29T05:00:23.942Z,5.13
2023-06-29T05:03:11.754Z,5.18
2023-06-29T05:06:01.109Z,5.03
2023-06-29T05:08:49.432Z,6.28
2023-06-29T05:11:37.434Z,5.85
2023-06-29T05:14:25.367Z,5.55
2023-06-29T05:17:13.482Z,4.57
2023-06-29T05:20:01.255Z,4.97
2023-06-29T05:22:50.708Z,4.82
2023-06-29T05:25:38.892Z,7.68
2023-06-29T05:28:26.812Z,5.13
2023-06-29T05:31:16.399Z,5.13
2023-06-29T05:34:04.513Z,5.55
2023-06-29T05:36:52.426Z,5.15
2023-06-29T05:39:41.930Z,5.22
2023-06-29T05:42:29.976Z,5.15
2023-06-29T05:45:17.970Z,6.00
2023-06-29T05:48:06.991Z,4.75
2023-06-29T05:50:54.914Z,5.05
2023-06-29T05:53:42.816Z,5.47
2023-06-29T05:56:32.084Z,5.45
2023-06-29T05:59:19.916Z,5.22
2023-06-29T06:02:07.852Z,6.57
2023-06-29T06:04:55.555Z,5.68
2023-06-29T06:07:43.474Z,4.88
2023-06-29T06:10:31.267Z,5.28
2023-06-29T06:13:20.481Z,5.72
2023-06-29T06:16:08.623Z,5.68
2023-06-29T06:18:56.724Z,5.55
2023-06-29T06:21:44.634Z,6.43
2023-06-29T06:24:32.802Z,5.68
2023-06-29T06:27:20.606Z,5.95
2023-06-29T06:30:10.932Z,5.90
2023-06-29T06:33:02.645Z,5.10
2023-06-29T06:35:50.489Z,5.20
2023-06-29T06:38:49.598Z,6.20
2023-06-29T06:41:38.060Z,6.50
2023-06-29T06:44:25.801Z,5.45
2023-06-29T06:47:15.021Z,4.95
2023-06-29T06:50:03.317Z,5.13
2023-06-29T06:52:51.301Z,5.32
2023-06-29T06:55:39.011Z,4.60
2023-06-29T06:58:27.023Z,5.45
2023-06-29T07:01:14.940Z,5.47
2023-06-29T07:04:04.495Z,5.68
2023-06-29T07:06:52.263Z,5.53
2023-06-29T07:09:40.577Z,6.28
2023-06-29T07:12:28.412Z,5.93
2023-06-29T07:15:17.715Z,6.00
2023-06-29T07:18:05.742Z,5.95
2023-06-29T07:26:39.383Z,6.18
2023-06-29T07:29:27.853Z,5.80
2023-06-29T07:32:15.658Z,14.88
2023-06-29T07:35:03.424Z,5.95
2023-06-29T07:37:52.637Z,5.07
2023-06-29T07:40:40.803Z,5.40
2023-06-29T07:43:28.822Z,5.65
2023-06-29T07:46:16.908Z,5.70
2023-06-29T07:49:04.955Z,5.97
2023-06-29T07:51:52.699Z,5.93
2023-06-29T07:54:43.209Z,5.85
2023-06-29T08:00:23.263Z,6.20
2023-06-29T08:03:11.595Z,6.32
2023-06-29T08:08:52.742Z,5.68
2023-06-29T08:11:42.137Z,6.38
2023-06-29T08:14:30.059Z,5.43
2023-06-29T08:17:18.077Z,6.00
2023-06-29T08:20:10.908Z,5.68
2023-06-29T08:22:58.990Z,5.57
2023-06-29T08:25:46.986Z,5.63
2023-06-29T08:28:36.541Z,5.32
2023-06-29T08:31:24.604Z,4.00
2023-06-29T08:34:12.615Z,4.82
2023-06-29T08:37:00.408Z,5.05
2023-06-29T08:39:48.321Z,5.13
2023-06-29T08:42:38.380Z,4.85
2023-06-29T08:45:27.608Z,4.72
2023-06-29T08:48:16.515Z,4.82
2023-06-29T08:51:05.770Z,5.45
2023-06-29T08:53:55.055Z,5.50
2023-06-29T08:56:43.392Z,5.50
2023-06-29T08:59:31.525Z,5.90
2023-06-29T09:02:21.427Z,6.38
2023-06-29T09:05:13.230Z,4.78
2023-06-29T09:08:01.328Z,4.80
2023-06-29T09:10:49.132Z,4.93
2023-06-29T09:13:37.941Z,4.95
2023-06-29T09:16:30.996Z,4.70
2023-06-29T09:19:20.696Z,5.67
2023-06-29T09:22:09.705Z,5.55
2023-06-29T09:25:07.745Z,5.20
2023-06-29T09:28:07.640Z,5.10
2023-06-29T09:30:56.349Z,4.72
2023-06-29T09:33:44.264Z,4.85
2023-06-29T09:36:33.408Z,4.22
2023-06-29T09:39:22.254Z,4.45
2023-06-29T09:42:10.713Z,5.20
2023-06-29T09:45:03.237Z,4.68
2023-06-29T09:50:50.552Z,4.90
2023-06-29T09:53:40.397Z,4.78
2023-06-29T09:56:29.097Z,5.15
2023-06-29T09:59:17.725Z,4.35
2023-06-29T10:02:06.040Z,4.63
2023-06-29T10:04:54.866Z,4.63
2023-06-29T10:07:44.068Z,4.43
2023-06-29T10:10:36.531Z,5.00
2023-06-29T10:13:25.740Z,5.30
2023-06-29T10:16:16.585Z,4.65
2023-06-29T10:19:16.066Z,4.38
2023-06-29T10:22:07.510Z,4.55
2023-06-29T10:24:59.653Z,4.95
2023-06-29T10:27:53.152Z,4.47
2023-06-29T10:30:48.250Z,4.38
2023-06-29T10:33:47.309Z,4.25
2023-06-29T10:36:54.237Z,4.40
2023-06-29T10:39:45.291Z,3.67
2023-06-29T10:42:56.910Z,3.97
2023-06-29T10:45:44.758Z,4.68
2023-06-29T10:48:46.997Z,4.40
2023-06-29T10:51:36.626Z,4.38
2023-06-29T10:54:24.857Z,4.57
2023-06-29T10:57:12.919Z,4.30
2023-06-29T11:00:02.406Z,5.00
2023-06-29T11:02:51.015Z,4.25
2023-06-29T11:05:39.186Z,3.97
2023-06-29T11:08:27.907Z,3.80
2023-06-29T11:11:16.471Z,3.92
2023-06-29T11:14:05.078Z,4.00
2023-06-29T11:16:56.824Z,3.78
2023-06-29T11:19:46.691Z,3.88
2023-06-29T11:22:34.769Z,4.25
2023-06-29T11:25:22.569Z,3.35
2023-06-29T11:28:10.564Z,3.53
2023-06-29T11:30:58.364Z,3.45
2023-06-29T11:33:51.044Z,3.97
2023-06-29T11:36:39.679Z,3.85
2023-06-29T11:39:27.500Z,4.07
2023-06-29T11:42:20.330Z,3.88
2023-06-29T11:45:09.385Z,3.70
2023-06-29T11:47:58.393Z,3.63
2023-06-29T11:50:50.013Z,3.10
2023-06-29T11:53:38.069Z,3.55
2023-06-29T11:56:26.773Z,3.50
2023-06-29T11:59:16.721Z,3.50
2023-06-29T12:02:05.947Z,3.63
2023-06-29T12:04:58.773Z,3.53
2023-06-29T12:07:49.603Z,3.80
2023-06-29T12:10:40.197Z,2.50
2023-06-29T12:13:28.015Z,2.80
2023-06-29T12:19:17.367Z,3.42
2023-06-29T12:22:07.142Z,3.15
2023-06-29T12:24:56.644Z,3.03
2023-06-29T12:27:45.821Z,3.88
2023-06-29T12:30:33.550Z,2.67
2023-06-29T12:33:21.462Z,2.90
2023-06-29T12:36:09.281Z,2.97
2023-06-29T12:38:57.547Z,3.03
2023-06-29T12:41:47.479Z,3.35
2023-06-29T12:44:36.776Z,3.80
2023-06-29T12:47:24.634Z,2.55
2023-06-29T12:50:13.037Z,2.92
2023-06-29T12:53:01.527Z,4.20
2023-06-29T12:55:49.378Z,2.92
2023-06-29T12:58:38.924Z,2.85
2023-06-29T13:01:26.839Z,2.67
2023-06-29T13:04:16.109Z,2.90
2023-06-29T13:07:04.672Z,3.60
2023-06-29T13:09:53.884Z,4.68
2023-06-29T13:12:43.059Z,4.63
2023-06-29T13:15:32.197Z,4.63
2023-06-29T13:18:20.297Z,9.18
2023-06-29T13:21:08.206Z,4.00
2023-06-29T13:23:56.181Z,9.70
2023-06-29T13:26:44.207Z,7.63
2023-06-29T13:29:32.326Z,5.68
2023-06-29T13:32:21.625Z,5.95
2023-06-29T13:35:10.548Z,4.90
2023-06-29T13:37:58.343Z,3.97
2023-06-29T13:40:46.154Z,3.65
2023-06-29T13:43:34.040Z,4.30
2023-06-29T13:46:21.869Z,3.03
2023-06-29T13:49:11.062Z,3.65
2023-06-29T13:51:58.871Z,4.45
2023-06-29T13:54:46.816Z,3.85
2023-06-29T13:57:34.707Z,16.42
2023-06-29T14:00:24.152Z,3.55
2023-06-29T14:03:12.019Z,4.22
2023-06-29T14:06:01.662Z,3.33
2023-06-29T14:08:49.709Z,3.35
2023-06-29T14:11:37.669Z,4.47
2023-06-29T14:14:25.387Z,4.07
2023-06-29T14:17:13.817Z,4.32
2023-06-29T14:20:01.752Z,3.65
2023-06-29T14:22:50.928Z,2.90
2023-06-29T14:25:39.172Z,2.88
2023-06-29T14:28:26.983Z,3.65
2023-06-29T14:31:16.602Z,3.03
2023-06-29T14:34:04.687Z,4.13
2023-06-29T14:36:52.540Z,3.45
2023-06-29T14:39:41.852Z,3.67
2023-06-29T14:42:29.779Z,11.38
2023-06-29T14:45:17.775Z,5.88
2023-06-29T14:48:05.886Z,4.18
2023-06-29T14:50:54.779Z,3.58
2023-06-29T14:53:42.659Z,5.05
2023-06-29T14:56:32.407Z,4.40
2023-06-29T14:59:20.342Z,3.55
2023-06-29T15:02:08.157Z,3.88
2023-06-29T15:04:56.149Z,4.13
2023-06-29T15:07:44.308Z,3.00
2023-06-29T15:10:32.365Z,2.85
2023-06-29T15:13:21.647Z,4.15
2023-06-29T15:16:09.701Z,3.17
2023-06-29T15:19:00.350Z,3.40
2023-06-29T15:21:48.509Z,2.85
2023-06-29T15:24:36.499Z,2.80
2023-06-29T15:27:24.434Z,3.40
2023-06-29T15:30:15.013Z,3.40
2023-06-29T15:33:02.952Z,3.33
2023-06-29T15:35:51.345Z,3.03
2023-06-29T15:38:39.613Z,2.83
2023-06-29T15:41:27.513Z,3.88
2023-06-29T15:44:15.337Z,3.40
2023-06-29T15:47:07.233Z,3.58
2023-06-29T15:49:55.261Z,3.60
2023-06-29T15:52:43.375Z,2.85
2023-06-29T15:55:31.425Z,3.80
2023-06-29T15:58:19.262Z,3.20
2023-06-29T16:01:07.206Z,2.88
2023-06-29T16:03:56.566Z,2.90
2023-06-29T16:06:47.435Z,3.63
2023-06-29T16:09:35.374Z,3.65
2023-06-29T16:12:23.118Z,3.05
2023-06-29T16:15:11.825Z,3.47
2023-06-29T16:17:59.811Z,3.30
2023-06-29T16:20:49.849Z,2.67
2023-06-29T16:23:39.365Z,3.03
2023-06-29T16:26:27.130Z,3.38
2023-06-29T16:29:15.052Z,3.22
2023-06-29T16:32:03.230Z,3.10
2023-06-29T16:34:51.911Z,2.75
2023-06-29T16:37:42.128Z,3.42
2023-06-29T16:40:30.157Z,3.20
2023-06-29T16:43:17.998Z,3.28
2023-06-29T16:46:06.002Z,3.05
2023-06-29T16:48:58.715Z,3.40
2023-06-29T16:51:46.822Z,3.25
2023-06-29T16:54:36.399Z,3.03
2023-06-29T16:57:24.192Z,3.90
2023-06-29T17:00:13.174Z,3.35
2023-06-29T17:03:01.206Z,3.53
2023-06-29T17:05:49.240Z,3.20
2023-06-29T17:08:38.594Z,3.33
2023-06-29T17:11:28.008Z,3.15
2023-06-29T17:14:15.742Z,4.53
2023-06-29T17:17:03.696Z,4.25
2023-06-29T17:19:52.321Z,3.00
2023-06-29T17:22:40.118Z,3.63
2023-06-29T17:25:28.094Z,3.03
2023-06-29T17:28:18.056Z,3.28
2023-06-29T17:31:06.095Z,3.55
2023-06-29T17:33:56.038Z,3.97
2023-06-29T17:36:43.852Z,5.60
2023-06-29T17:39:31.794Z,4.80
2023-06-29T17:42:24.285Z,5.30
2023-06-29T17:45:14.877Z,4.82
2023-06-29T17:48:02.790Z,4.30
2023-06-29T17:50:53.209Z,3.75
2023-06-29T17:53:42.125Z,6.35
2023-06-29T17:56:31.163Z,6.30
2023-06-29T17:59:18.951Z,3.60
2023-06-29T18:02:08.457Z,4.32
2023-06-29T18:04:58.604Z,4.03
2023-06-29T18:07:47.389Z,4.60
2023-06-29T18:10:35.388Z,4.55
2023-06-29T18:13:23.209Z,4.70
2023-06-29T18:16:11.849Z,4.93
2023-06-29T18:19:01.006Z,4.90
2023-06-29T18:21:48.978Z,4.32
2023-06-29T18:24:37.139Z,3.38
2023-06-29T18:27:25.006Z,3.25
2023-06-29T18:30:14.413Z,3.53
2023-06-29T18:33:02.303Z,4.32
2023-06-29T18:35:51.896Z,3.88
2023-06-29T18:38:39.780Z,4.15
2023-06-29T18:41:30.082Z,3.85
2023-06-29T18:44:18.301Z,3.55
2023-06-29T18:47:11.072Z,3.58
2023-06-29T18:49:59.205Z,3.83
2023-06-29T18:52:48.519Z,4.50
2023-06-29T18:55:36.705Z,4.00
2023-06-29T18:58:24.357Z,3.35
2023-06-29T19:01:12.281Z,4.28
2023-06-29T19:04:00.346Z,3.95
2023-06-29T19:06:48.247Z,3.90
2023-06-29T19:09:37.416Z,4.78
2023-06-29T19:12:25.408Z,3.88
2023-06-29T19:15:14.790Z,4.70
2023-06-29T19:18:02.906Z,3.92
2023-06-29T19:20:51.983Z,2.97
2023-06-29T19:23:44.040Z,3.28
2023-06-29T19:26:33.503Z,4.40
2023-06-29T19:29:21.365Z,4.05
2023-06-29T19:32:10.604Z,3.63
2023-06-29T19:34:58.679Z,3.60
2023-06-29T19:37:46.535Z,3.13
2023-06-29T19:40:34.573Z,2.85
2023-06-29T19:43:23.785Z,2.85
2023-06-29T19:46:12.053Z,2.85
2023-06-29T19:49:00.197Z,3.17
2023-06-29T19:51:48.015Z,3.67
2023-06-29T19:54:35.877Z,3.03
2023-06-29T19:57:23.797Z,3.00
2023-06-29T20:00:13.838Z,2.80
2023-06-29T20:03:01.846Z,2.95
2023-06-29T20:05:50.194Z,2.88
2023-06-29T20:08:38.252Z,3.13
2023-06-29T20:11:26.219Z,2.80
2023-06-29T20:14:14.031Z,3.13
2023-06-29T20:17:03.521Z,2.75
2023-06-29T20:19:51.299Z,2.50
2023-06-29T20:22:38.996Z,3.17
2023-06-29T20:25:27.860Z,2.90
2023-06-29T20:28:15.923Z,3.22
2023-06-29T20:31:03.967Z,2.72
2023-06-29T20:33:53.461Z,2.53
2023-06-29T20:36:41.571Z,3.55
2023-06-29T20:39:30.284Z,4.65
2023-06-29T20:42:18.373Z,4.32
2023-06-29T20:45:07.498Z,3.95
2023-06-29T20:47:55.466Z,3.85
2023-06-29T20:50:44.919Z,3.35
2023-06-29T20:53:32.836Z,3.42
2023-06-29T20:56:20.909Z,3.55
2023-06-29T20:59:08.715Z,4.55
2023-06-29T21:01:56.657Z,3.40
2023-06-29T21:04:44.811Z,4.13
2023-06-29T21:07:34.484Z,3.13
2023-06-29T21:10:22.341Z,4.25
2023-06-29T21:13:10.546Z,4.00
2023-06-29T21:15:58.580Z,4.03
2023-06-29T21:18:46.796Z,4.70
2023-06-29T21:21:35.334Z,4.43
2023-06-29T21:24:24.934Z,4.68
2023-06-29T21:27:15.315Z,3.63
2023-06-29T21:30:04.752Z,4.03
2023-06-29T21:32:53.246Z,4.38
2023-06-29T21:35:41.500Z,5.20
2023-06-29T21:38:32.169Z,5.25
2023-06-29T21:41:21.637Z,5.40
2023-06-29T21:44:09.373Z,5.35
2023-06-29T21:46:57.503Z,5.05
2023-06-29T21:49:45.554Z,5.40
2023-06-29T21:52:33.542Z,4.75
2023-06-29T21:55:21.569Z,4.55
2023-06-29T21:58:12.116Z,4.97
2023-06-29T22:01:00.247Z,5.05
2023-06-29T22:03:48.545Z,5.45
2023-06-29T22:06:36.489Z,4.85
2023-06-29T22:09:24.309Z,4.13
2023-06-29T22:12:13.108Z,4.30
2023-06-29T22:15:02.433Z,4.68
2023-06-29T22:17:50.605Z,4.40
2023-06-29T22:20:38.444Z,4.90
2023-06-29T22:23:26.377Z,3.97
2023-06-29T22:26:14.320Z,4.53
2023-06-29T22:29:02.400Z,4.60
2023-06-29T22:31:51.661Z,4.75
2023-06-29T22:34:39.519Z,4.53
2023-06-29T22:37:27.752Z,4.40
2023-06-29T22:40:15.841Z,4.50
2023-06-29T22:43:03.687Z,4.70
2023-06-29T22:45:51.728Z,4.57
2023-06-29T22:48:42.207Z,5.20
2023-06-29T22:51:30.171Z,4.43
2023-06-29T22:54:18.227Z,4.07
2023-06-29T22:57:06.388Z,4.65
2023-06-29T22:59:55.055Z,4.95
2023-06-29T23:02:42.851Z,4.47
2023-06-29T23:05:32.066Z,5.18
2023-06-29T23:08:20.164Z,4.82
2023-06-29T23:11:08.897Z,4.45
2023-06-29T23:13:57.073Z,5.30
2023-06-29T23:16:47.445Z,5.03
2023-06-29T23:19:36.178Z,4.72
2023-06-29T23:22:25.674Z,4.60
2023-06-29T23:25:13.774Z,4.45
2023-06-29T23:28:04.443Z,4.82
2023-06-29T23:30:52.431Z,4.63
2023-06-29T23:33:40.364Z,4.40
2023-06-29T23:36:28.868Z,5.03
2023-06-29T23:39:18.340Z,5.45
2023-06-29T23:42:07.144Z,4.65
2023-06-29T23:44:55.341Z,4.90
2023-06-29T23:47:43.238Z,4.95
2023-06-29T23:50:32.002Z,4.75
2023-06-29T23:53:19.952Z,4.93
2023-06-29T23:56:08.923Z,4.57
2023-06-29T23:58:56.911Z,5.05
